createdAt,value
2023-05-11T00:00:15.919Z,28.42
2023-05-11T00:02:43.237Z,22.52
2023-05-11T00:05:09.977Z,26.23
2023-05-11T00:07:36.535Z,21.63
2023-05-11T00:10:03.011Z,28.27
2023-05-11T00:12:29.461Z,27.13
2023-05-11T00:14:56.112Z,27.45
2023-05-11T00:17:22.760Z,28.02
2023-05-11T00:19:49.494Z,27.75
2023-05-11T00:22:16.210Z,28.05
2023-05-11T00:24:42.721Z,29.10
2023-05-11T00:27:09.193Z,28.60
2023-05-11T00:29:35.800Z,27.70
2023-05-11T00:32:02.319Z,24.25
2023-05-11T00:34:28.794Z,25.70
2023-05-11T00:36:55.254Z,26.35
2023-05-11T00:39:21.765Z,24.15
2023-05-11T00:41:48.214Z,25.13
2023-05-11T00:44:14.768Z,23.42
2023-05-11T00:46:41.957Z,24.00
2023-05-11T00:49:09.592Z,23.95
2023-05-11T00:51:36.276Z,25.13
2023-05-11T00:54:02.794Z,26.08
2023-05-11T00:56:29.441Z,25.70
2023-05-11T00:58:55.923Z,25.20
2023-05-11T01:01:22.604Z,23.65
2023-05-11T01:03:49.691Z,22.90
2023-05-11T01:06:27.694Z,27.48
2023-05-11T01:09:21.381Z,21.95
2023-05-11T01:12:00.713Z,27.98
2023-05-11T01:14:29.703Z,29.23
2023-05-11T01:17:03.495Z,29.83
2023-05-11T01:19:47.554Z,28.27
2023-05-11T01:22:28.861Z,30.15
2023-05-11T01:25:21.188Z,25.45
2023-05-11T01:28:23.228Z,23.15
2023-05-11T01:30:57.766Z,19.70
2023-05-11T01:33:34.079Z,25.25
2023-05-11T01:36:05.581Z,27.38
2023-05-11T01:38:35.386Z,27.95
2023-05-11T01:41:09.908Z,27.85
2023-05-11T01:43:38.020Z,26.77
2023-05-11T01:46:06.745Z,23.83
2023-05-11T01:48:38.079Z,28.25
2023-05-11T01:51:05.691Z,30.85
2023-05-11T01:53:35.403Z,28.58
2023-05-11T01:56:02.992Z,29.98
2023-05-11T01:58:31.009Z,28.85
2023-05-11T02:01:00.213Z,34.10
2023-05-11T02:03:29.548Z,28.27
2023-05-11T02:05:58.345Z,33.25
2023-05-11T02:08:27.165Z,34.72
2023-05-11T02:10:54.855Z,33.97
2023-05-11T02:13:22.845Z,34.95
2023-05-11T02:15:52.006Z,36.70
2023-05-11T02:18:20.646Z,37.03
2023-05-11T02:20:48.165Z,36.42
2023-05-11T02:23:14.971Z,36.95
2023-05-11T02:25:43.154Z,37.50
2023-05-11T02:28:09.775Z,31.58
2023-05-11T02:30:44.549Z,33.00
2023-05-11T02:33:14.504Z,34.75
2023-05-11T02:35:43.536Z,34.53
2023-05-11T02:38:12.542Z,33.47
2023-05-11T02:40:49.087Z,31.83
2023-05-11T02:43:21.871Z,36.28
2023-05-11T02:45:52.505Z,35.53
2023-05-11T02:48:23.846Z,35.28
2023-05-11T02:50:52.353Z,36.88
2023-05-11T02:53:21.861Z,31.52
2023-05-11T02:55:50.575Z,32.42
2023-05-11T02:58:18.610Z,32.67
2023-05-11T03:00:45.805Z,31.70
2023-05-11T03:03:12.868Z,28.02
2023-05-11T03:05:39.844Z,32.80
2023-05-11T03:08:06.456Z,34.33
2023-05-11T03:10:33.284Z,34.95
2023-05-11T03:13:00.391Z,39.30
2023-05-11T03:15:27.838Z,35.03
2023-05-11T03:17:56.070Z,36.25
2023-05-11T03:20:23.721Z,39.70
2023-05-11T03:22:51.994Z,35.47
2023-05-11T03:25:20.126Z,34.92
2023-05-11T03:27:47.351Z,35.33
2023-05-11T03:30:15.707Z,33.40
2023-05-11T03:32:42.424Z,33.55
2023-05-11T03:35:09.480Z,35.65
2023-05-11T03:37:38.205Z,38.08
2023-05-11T03:40:07.726Z,32.15
2023-05-11T03:42:36.304Z,34.30
2023-05-11T03:45:03.251Z,34.20
2023-05-11T03:47:32.552Z,20.50
2023-05-11T03:49:59.811Z,36.13
2023-05-11T03:52:26.612Z,39.65
2023-05-11T03:54:53.430Z,40.67
2023-05-11T03:57:19.966Z,38.78
2023-05-11T03:59:46.505Z,43.05
2023-05-11T04:02:13.202Z,40.83
2023-05-11T04:04:39.702Z,42.95
2023-05-11T04:07:06.320Z,42.60
2023-05-11T04:09:32.817Z,40.10
2023-05-11T04:11:59.514Z,43.35
2023-05-11T04:14:25.951Z,42.05
2023-05-11T04:16:52.510Z,41.17
2023-05-11T04:19:19.259Z,42.95
2023-05-11T04:21:46.742Z,39.65
2023-05-11T04:24:13.195Z,39.63
2023-05-11T04:26:39.638Z,39.05
2023-05-11T04:29:06.153Z,41.38
2023-05-11T04:31:32.723Z,40.30
2023-05-11T04:33:59.281Z,40.33
2023-05-11T04:36:26.068Z,33.65
2023-05-11T04:38:53.231Z,31.92
2023-05-11T04:41:19.805Z,28.48
2023-05-11T04:43:46.238Z,25.73
2023-05-11T04:46:12.709Z,23.83
2023-05-11T04:48:39.173Z,23.80
2023-05-11T04:51:06.797Z,22.20
2023-05-11T04:53:33.314Z,18.48
2023-05-11T04:55:59.817Z,21.65
2023-05-11T04:58:26.289Z,18.50
2023-05-11T05:00:52.758Z,18.23
2023-05-11T05:03:19.326Z,16.38
2023-05-11T05:05:45.813Z,16.48
2023-05-11T05:08:12.272Z,16.52
2023-05-11T05:10:38.746Z,16.33
2023-05-11T05:13:05.352Z,16.42
2023-05-11T05:15:31.857Z,16.92
2023-05-11T05:17:58.380Z,15.80
2023-05-11T05:20:24.949Z,16.75
2023-05-11T05:22:51.903Z,16.92
2023-05-11T05:25:18.631Z,16.05
2023-05-11T05:27:45.314Z,15.38
2023-05-11T05:30:12.064Z,18.05
2023-05-11T05:32:38.601Z,16.30
2023-05-11T05:35:05.815Z,17.13
2023-05-11T05:37:32.293Z,17.05
2023-05-11T05:39:58.755Z,15.68
2023-05-11T05:42:25.306Z,14.10
2023-05-11T05:44:52.273Z,16.90
2023-05-11T05:47:18.692Z,15.45
2023-05-11T05:49:45.255Z,15.82
2023-05-11T05:52:11.945Z,13.82
2023-05-11T05:54:38.510Z,13.68
2023-05-11T05:57:04.978Z,11.85
2023-05-11T05:59:31.414Z,15.23
2023-05-11T06:01:57.963Z,12.80
2023-05-11T06:04:24.485Z,13.02
2023-05-11T06:06:51.179Z,18.42
2023-05-11T06:09:17.680Z,19.42
2023-05-11T06:11:44.139Z,18.55
2023-05-11T06:14:10.744Z,12.73
2023-05-11T06:16:40.167Z,16.33
2023-05-11T06:19:08.296Z,22.50
2023-05-11T06:21:34.791Z,11.82
2023-05-11T06:24:01.276Z,20.88
2023-05-11T06:26:28.580Z,23.02
2023-05-11T06:28:55.096Z,23.10
2023-05-11T06:31:23.177Z,13.05
2023-05-11T06:33:50.296Z,13.77
2023-05-11T06:36:16.799Z,17.20
2023-05-11T06:38:43.278Z,22.05
2023-05-11T06:41:11.465Z,8.75
2023-05-11T06:43:38.402Z,11.52
2023-05-11T06:46:05.119Z,17.38
2023-05-11T06:48:31.667Z,23.02
2023-05-11T06:50:58.226Z,23.58
2023-05-11T06:53:24.739Z,23.30
2023-05-11T06:55:51.631Z,22.38
2023-05-11T06:58:20.624Z,14.70
2023-05-11T07:00:47.434Z,24.70
2023-05-11T07:03:13.981Z,20.60
2023-05-11T07:05:40.624Z,23.40
2023-05-11T07:08:07.262Z,24.50
2023-05-11T07:10:33.820Z,10.75
2023-05-11T07:13:00.281Z,20.58
2023-05-11T07:15:26.744Z,21.77
2023-05-11T07:17:53.566Z,20.52
2023-05-11T07:20:20.426Z,20.70
2023-05-11T07:22:47.086Z,18.90
2023-05-11T07:25:13.701Z,20.38
2023-05-11T07:27:40.183Z,21.42
2023-05-11T07:30:07.148Z,20.95
2023-05-11T07:32:33.903Z,20.38
2023-05-11T07:35:00.453Z,19.40
2023-05-11T07:37:26.967Z,20.15
2023-05-11T07:39:54.259Z,20.13
2023-05-11T07:42:20.749Z,18.58
2023-05-11T07:44:47.225Z,18.38
2023-05-11T07:47:15.264Z,21.77
2023-05-11T07:49:44.122Z,18.00
2023-05-11T07:52:11.652Z,16.58
2023-05-11T07:54:38.831Z,16.15
2023-05-11T07:57:05.876Z,14.85
2023-05-11T07:59:32.595Z,15.30
2023-05-11T08:01:59.499Z,14.25
2023-05-11T08:04:27.166Z,15.32
2023-05-11T08:06:53.861Z,13.52
2023-05-11T08:09:20.321Z,13.45
2023-05-11T08:11:46.834Z,13.55
2023-05-11T08:14:13.571Z,14.73
2023-05-11T08:16:40.227Z,12.85
2023-05-11T08:19:06.821Z,13.95
2023-05-11T08:21:33.315Z,11.75
2023-05-11T08:23:59.781Z,12.73
2023-05-11T08:26:26.258Z,11.98
2023-05-11T08:28:52.825Z,10.23
2023-05-11T08:31:19.335Z,14.43
2023-05-11T08:33:45.947Z,14.60
2023-05-11T08:36:15.714Z,12.52
2023-05-11T08:38:42.405Z,11.95
2023-05-11T08:41:12.359Z,13.73
2023-05-11T08:43:40.694Z,11.80
2023-05-11T08:46:08.828Z,12.77
2023-05-11T08:48:35.959Z,11.27
2023-05-11T08:51:04.319Z,12.70
2023-05-11T08:53:30.913Z,10.80
2023-05-11T08:55:59.755Z,12.55
2023-05-11T08:58:27.582Z,12.90
2023-05-11T09:00:54.543Z,12.00
2023-05-11T09:03:22.441Z,11.48
2023-05-11T09:05:50.131Z,12.80
2023-05-11T09:08:18.944Z,12.68
2023-05-11T09:10:45.966Z,11.77
2023-05-11T09:13:12.800Z,10.30
2023-05-11T09:15:39.480Z,11.45
2023-05-11T09:18:06.312Z,9.35
2023-05-11T09:20:34.714Z,8.95
2023-05-11T09:23:01.528Z,6.88
2023-05-11T09:25:33.562Z,6.72
2023-05-11T09:28:00.826Z,6.55
2023-05-11T09:30:27.649Z,6.88
2023-05-11T09:33:02.261Z,8.00
2023-05-11T09:35:33.967Z,7.10
2023-05-11T09:38:07.820Z,8.20
2023-05-11T09:40:36.166Z,8.73
2023-05-11T09:43:20.569Z,8.00
2023-05-11T09:45:49.799Z,8.73
2023-05-11T09:48:18.969Z,8.05
2023-05-11T09:50:46.627Z,8.27
2023-05-11T09:53:15.927Z,9.05
2023-05-11T09:55:53.465Z,9.00
2023-05-11T09:58:19.938Z,8.82
2023-05-11T10:00:51.251Z,12.10
2023-05-11T10:03:18.646Z,13.68
2023-05-11T10:05:59.683Z,12.40
2023-05-11T10:08:31.150Z,13.05
2023-05-11T10:10:58.284Z,13.38
2023-05-11T10:13:24.879Z,13.48
2023-05-11T10:15:52.551Z,12.82
2023-05-11T10:18:20.329Z,14.30
2023-05-11T10:20:47.671Z,10.80
2023-05-11T10:23:15.109Z,10.93
2023-05-11T10:25:42.481Z,12.38
2023-05-11T10:28:09.544Z,11.95
2023-05-11T10:30:37.232Z,11.70
2023-05-11T10:33:05.169Z,11.52
2023-05-11T10:35:32.617Z,10.77
2023-05-11T10:38:01.009Z,11.32
2023-05-11T10:40:28.064Z,13.32
2023-05-11T10:43:17.846Z,13.10
2023-05-11T10:45:57.934Z,14.18
2023-05-11T10:48:33.075Z,13.10
2023-05-11T10:51:34.172Z,13.93
2023-05-11T10:54:07.463Z,12.07
2023-05-11T10:56:53.023Z,11.20
2023-05-11T11:02:09.029Z,11.45
2023-05-11T11:04:50.510Z,12.57
2023-05-11T11:07:19.469Z,9.77
2023-05-11T11:10:00.703Z,11.43
2023-05-11T11:12:29.551Z,10.93
2023-05-11T11:14:58.922Z,9.45
2023-05-11T11:17:27.883Z,9.55
2023-05-11T11:19:55.064Z,12.00
2023-05-11T11:22:41.525Z,10.23
2023-05-11T11:25:12.435Z,10.85
2023-05-11T11:27:41.807Z,12.00
2023-05-11T11:30:24.491Z,10.63
2023-05-11T11:32:56.883Z,11.13
2023-05-11T11:35:42.162Z,11.38
2023-05-11T11:38:10.508Z,10.23
2023-05-11T11:43:21.101Z,10.82
2023-05-11T11:45:59.658Z,10.38
2023-05-11T11:48:40.674Z,10.43
2023-05-11T11:51:10.347Z,11.05
2023-05-11T11:53:43.753Z,9.52
2023-05-11T11:56:16.013Z,9.02
2023-05-11T11:58:42.499Z,8.90
2023-05-11T12:01:12.001Z,9.63
2023-05-11T12:03:39.667Z,9.10
2023-05-11T12:06:07.989Z,10.82
2023-05-11T12:08:36.314Z,4.47
2023-05-11T12:11:05.360Z,12.57
2023-05-11T12:13:33.296Z,4.40
2023-05-11T12:16:09.336Z,11.98
2023-05-11T12:18:36.470Z,5.53
2023-05-11T12:21:03.179Z,13.93
2023-05-11T12:23:30.479Z,12.43
2023-05-11T12:26:04.406Z,13.73
2023-05-11T12:28:30.967Z,13.02
2023-05-11T12:30:59.924Z,11.80
2023-05-11T12:33:27.335Z,13.20
2023-05-11T12:35:55.905Z,12.43
2023-05-11T12:38:22.639Z,10.93
2023-05-11T12:40:50.386Z,15.15
2023-05-11T12:43:18.751Z,13.52
2023-05-11T12:45:46.693Z,12.63
2023-05-11T12:48:14.193Z,15.02
2023-05-11T12:50:49.538Z,13.40
2023-05-11T12:53:19.717Z,10.68
2023-05-11T12:55:57.923Z,7.88
2023-05-11T12:58:24.443Z,5.93
2023-05-11T13:00:50.967Z,5.05
2023-05-11T13:03:28.334Z,6.10
2023-05-11T13:06:06.275Z,6.28
2023-05-11T13:08:32.956Z,6.78
2023-05-11T13:11:24.562Z,5.10
2023-05-11T13:13:56.995Z,5.78
2023-05-11T13:16:28.416Z,6.50
2023-05-11T13:19:02.954Z,6.75
2023-05-11T13:21:30.312Z,7.18
2023-05-11T13:23:56.840Z,7.93
2023-05-11T13:26:25.369Z,8.38
2023-05-11T13:29:05.750Z,7.63
2023-05-11T13:31:49.016Z,8.57
2023-05-11T13:34:15.897Z,8.45
2023-05-11T13:36:43.156Z,8.10
2023-05-11T13:39:09.985Z,8.38
2023-05-11T13:41:36.849Z,7.65
2023-05-11T13:44:03.625Z,8.90
2023-05-11T13:46:30.199Z,8.57
2023-05-11T13:48:56.795Z,8.25
2023-05-11T13:51:23.318Z,7.22
2023-05-11T13:53:49.784Z,5.47
2023-05-11T13:56:19.401Z,6.07
2023-05-11T13:58:46.167Z,6.47
2023-05-11T14:01:12.865Z,7.28
2023-05-11T14:03:39.686Z,6.97
2023-05-11T14:06:06.450Z,6.57
2023-05-11T14:08:32.865Z,7.32
2023-05-11T14:10:59.264Z,7.15
2023-05-11T14:13:25.703Z,5.28
2023-05-11T14:15:52.280Z,5.72
2023-05-11T14:18:18.926Z,5.38
2023-05-11T14:20:45.973Z,5.60
2023-05-11T14:23:12.648Z,5.60
2023-05-11T14:25:39.154Z,6.00
2023-05-11T14:28:05.679Z,5.80
2023-05-11T14:30:32.944Z,6.60
2023-05-11T14:32:59.444Z,8.57
2023-05-11T14:35:26.018Z,6.60
2023-05-11T14:37:54.439Z,6.60
2023-05-11T14:40:21.129Z,6.47
2023-05-11T14:42:47.604Z,5.80
2023-05-11T14:45:14.219Z,8.05
2023-05-11T14:47:40.809Z,6.50
2023-05-11T14:50:08.192Z,6.55
2023-05-11T14:52:34.832Z,6.45
2023-05-11T14:55:01.340Z,6.15
2023-05-11T14:57:27.873Z,5.63
2023-05-11T15:00:00.049Z,6.10
2023-05-11T15:02:27.414Z,6.68
2023-05-11T15:04:53.951Z,6.50
2023-05-11T15:28:39.356Z,7.45
2023-05-11T15:31:06.015Z,9.30
2023-05-11T15:33:33.322Z,7.60
2023-05-11T15:35:59.792Z,8.88
2023-05-11T15:38:26.568Z,5.45
2023-05-11T15:40:56.862Z,5.57
2023-05-11T15:43:23.318Z,4.10
2023-05-11T15:45:50.108Z,5.10
2023-05-11T15:48:16.666Z,4.45
2023-05-11T15:50:43.105Z,4.65
2023-05-11T15:53:09.527Z,5.57
2023-05-11T15:55:36.977Z,5.78
2023-05-11T15:58:07.437Z,5.82
2023-05-11T16:00:34.015Z,4.75
2023-05-11T16:03:01.560Z,5.40
2023-05-11T16:05:29.114Z,4.65
2023-05-11T16:07:55.579Z,4.57
2023-05-11T16:10:22.231Z,5.28
2023-05-11T16:12:48.741Z,4.70
2023-05-11T16:15:15.552Z,4.32
2023-05-11T16:17:42.173Z,4.50
2023-05-11T16:20:09.245Z,4.95
2023-05-11T16:22:37.187Z,4.22
2023-05-11T16:25:03.748Z,5.15
2023-05-11T16:27:30.273Z,4.18
2023-05-11T16:29:57.662Z,4.68
2023-05-11T16:32:24.528Z,3.95
2023-05-11T16:34:51.066Z,3.90
2023-05-11T16:37:17.969Z,4.57
2023-05-11T16:39:44.807Z,5.72
2023-05-11T16:42:11.264Z,4.88
2023-05-11T16:44:37.749Z,4.57
2023-05-11T16:47:04.877Z,3.60
2023-05-11T16:49:31.535Z,4.30
2023-05-11T16:51:58.202Z,4.82
2023-05-11T16:54:26.276Z,4.32
2023-05-11T16:56:53.575Z,5.18
2023-05-11T16:59:20.047Z,4.90
2023-05-11T17:01:46.588Z,4.80
2023-05-11T17:04:13.365Z,4.90
2023-05-11T17:06:39.991Z,4.53
2023-05-11T17:09:06.548Z,5.50
2023-05-11T17:11:33.032Z,4.70
2023-05-11T17:13:59.572Z,5.65
2023-05-11T17:16:26.133Z,5.13
2023-05-11T17:18:52.779Z,5.43
2023-05-11T17:21:19.316Z,6.05
2023-05-11T17:23:45.922Z,6.18
2023-05-11T17:26:13.225Z,6.20
2023-05-11T17:28:40.296Z,7.15
2023-05-11T17:31:12.118Z,7.07
2023-05-11T17:33:39.795Z,7.85
2023-05-11T17:36:06.792Z,9.93
2023-05-11T17:38:33.723Z,10.57
2023-05-11T17:41:04.655Z,9.45
2023-05-11T17:43:40.264Z,10.18
2023-05-11T17:46:06.853Z,9.15
2023-05-11T17:48:36.328Z,5.95
2023-05-11T17:51:02.806Z,5.50
2023-05-11T17:53:29.640Z,4.97
2023-05-11T17:55:59.597Z,4.63
2023-05-11T17:58:26.153Z,4.18
2023-05-11T18:00:53.085Z,4.53
2023-05-11T18:03:19.654Z,4.18
2023-05-11T18:05:49.101Z,4.93
2023-05-11T18:08:16.032Z,6.13
2023-05-11T18:10:42.613Z,5.28
2023-05-11T18:13:09.458Z,4.38
2023-05-11T18:15:36.011Z,4.95
2023-05-11T18:18:02.615Z,4.65
2023-05-11T18:20:29.119Z,5.32
2023-05-11T18:22:56.567Z,5.03
2023-05-11T18:25:24.121Z,5.15
2023-05-11T18:27:50.603Z,7.63
2023-05-11T18:30:17.261Z,8.27
2023-05-11T18:32:44.095Z,6.18
2023-05-11T18:35:10.725Z,5.47
2023-05-11T18:37:37.172Z,5.68
2023-05-11T18:40:06.280Z,5.60
2023-05-11T18:42:32.726Z,6.13
2023-05-11T18:45:02.128Z,5.85
2023-05-11T18:47:28.582Z,6.43
2023-05-11T18:49:55.260Z,5.60
2023-05-11T18:52:21.803Z,6.78
2023-05-11T18:54:48.357Z,6.28
2023-05-11T18:57:18.741Z,6.75
2023-05-11T18:59:45.279Z,6.25
2023-05-11T19:02:11.871Z,5.88
2023-05-11T19:04:38.335Z,6.70
2023-05-11T19:07:05.551Z,7.75
2023-05-11T19:09:32.009Z,6.32
2023-05-11T19:11:58.479Z,6.43
2023-05-11T19:14:24.924Z,7.45
2023-05-11T19:16:51.460Z,6.97
2023-05-11T19:19:17.990Z,7.38
2023-05-11T19:21:45.470Z,7.45
2023-05-11T19:24:12.077Z,7.53
2023-05-11T19:26:39.479Z,7.63
2023-05-11T19:29:09.368Z,7.57
2023-05-11T19:31:35.989Z,8.63
2023-05-11T19:34:02.911Z,8.65
2023-05-11T19:36:29.733Z,9.13
2023-05-11T19:38:57.018Z,9.43
2023-05-11T19:41:23.486Z,9.57
2023-05-11T19:43:49.951Z,10.40
2023-05-11T19:46:16.461Z,10.27
2023-05-11T19:48:43.084Z,10.32
2023-05-11T19:51:09.587Z,11.43
2023-05-11T19:53:36.621Z,11.10
2023-05-11T19:56:03.554Z,10.35
2023-05-11T19:58:30.108Z,11.15
2023-05-11T20:00:56.557Z,11.00
2023-05-11T20:03:23.216Z,11.98
2023-05-11T20:05:50.015Z,12.15
2023-05-11T20:08:16.521Z,11.45
2023-05-11T20:10:42.995Z,11.20
2023-05-11T20:13:09.476Z,11.15
2023-05-11T20:15:35.969Z,11.40
2023-05-11T20:18:03.096Z,10.45
2023-05-11T20:20:31.139Z,13.02
2023-05-11T20:22:59.186Z,12.55
2023-05-11T20:25:25.635Z,11.90
2023-05-11T20:27:52.279Z,11.32
2023-05-11T20:30:18.941Z,12.38
2023-05-11T20:35:15.155Z,11.75
2023-05-11T20:37:41.607Z,12.52
2023-05-11T20:40:08.920Z,12.82
2023-05-11T20:42:37.777Z,13.02
2023-05-11T20:45:07.342Z,12.77
2023-05-11T20:47:34.526Z,14.95
2023-05-11T20:50:01.135Z,14.20
2023-05-11T20:52:27.689Z,13.48
2023-05-11T20:54:54.505Z,14.23
2023-05-11T20:57:21.416Z,14.65
2023-05-11T21:02:17.485Z,15.23
2023-05-11T21:04:44.570Z,13.48
2023-05-11T21:07:11.034Z,14.88
2023-05-11T21:09:37.491Z,14.48
2023-05-11T21:12:04.271Z,14.65
2023-05-11T21:14:30.763Z,15.32
2023-05-11T21:16:57.253Z,15.30
2023-05-11T21:19:23.733Z,14.85
2023-05-11T21:21:50.288Z,14.82
2023-05-11T21:24:16.911Z,15.48
2023-05-11T21:26:43.953Z,15.45
2023-05-11T21:29:13.002Z,15.55
2023-05-11T21:31:39.478Z,15.43
2023-05-11T21:34:05.948Z,15.82
2023-05-11T21:36:32.435Z,14.60
2023-05-11T21:38:58.890Z,13.80
2023-05-11T21:41:26.027Z,14.70
2023-05-11T21:43:52.485Z,15.95
2023-05-11T21:46:19.003Z,16.02
2023-05-11T21:48:45.600Z,17.13
2023-05-11T21:51:12.078Z,16.83
2023-05-11T21:53:38.672Z,16.58
2023-05-11T21:56:05.447Z,17.75
2023-05-11T21:58:32.596Z,19.30
2023-05-11T22:00:59.297Z,16.50
2023-05-11T22:03:28.529Z,17.90
2023-05-11T22:05:55.138Z,18.75
2023-05-11T22:08:21.763Z,17.00
2023-05-11T22:10:52.114Z,17.40
2023-05-11T22:13:18.581Z,17.05
2023-05-11T22:15:45.087Z,17.90
2023-05-11T22:18:11.546Z,18.27
2023-05-11T22:20:38.060Z,17.48
2023-05-11T22:23:04.524Z,16.38
2023-05-11T22:25:32.041Z,17.77
2023-05-11T22:27:58.544Z,17.30
2023-05-11T22:30:24.997Z,15.00
2023-05-11T22:32:51.543Z,15.82
2023-05-11T22:35:18.116Z,14.65
2023-05-11T22:37:44.588Z,14.02
2023-05-11T22:40:11.556Z,12.60
2023-05-11T22:42:38.022Z,13.75
2023-05-11T22:45:05.087Z,12.27
2023-05-11T22:47:31.741Z,12.43
2023-05-11T22:49:58.297Z,14.02
2023-05-11T22:52:24.769Z,12.63
2023-05-11T22:54:55.194Z,12.00
2023-05-11T22:57:23.986Z,8.48
2023-05-11T22:59:50.664Z,8.23
2023-05-11T23:02:17.165Z,8.23
2023-05-11T23:04:44.323Z,9.30
2023-05-11T23:07:12.758Z,7.95
2023-05-11T23:09:39.431Z,9.40
2023-05-11T23:12:06.238Z,9.55
2023-05-11T23:14:32.724Z,9.95
2023-05-11T23:16:59.236Z,10.35
2023-05-11T23:19:25.820Z,10.02
2023-05-11T23:21:52.508Z,11.13
2023-05-11T23:24:19.061Z,11.07
2023-05-11T23:26:45.537Z,11.98
2023-05-11T23:29:12.088Z,12.48
2023-05-11T23:31:39.113Z,12.18
2023-05-11T23:34:05.596Z,11.10
2023-05-11T23:36:32.294Z,11.63
2023-05-11T23:38:58.743Z,12.18
2023-05-11T23:41:25.191Z,11.65
2023-05-11T23:43:51.684Z,12.13
2023-05-11T23:46:18.305Z,14.00
2023-05-11T23:48:45.634Z,12.85
2023-05-11T23:51:12.534Z,15.13
2023-05-11T23:53:39.097Z,16.23
2023-05-11T23:56:05.998Z,16.58
2023-05-11T23:58:32.455Z,18.85
